Time;durP1;ratioP1;P1;durP2;ratioP2;P2;SDS_P1;SDS_P2;PMS_P1;PMS_P2;Temp;Humidity;BMP_temperature;BMP_pressure;BME280_temperature;BME280_humidity;BME280_pressure;Samples;Min_cycle;Max_cycle;Signal;HPM_P1;HPM_P2
2021/08/17 00:01:49;;;;;;;7.53;3.80;;;;;;;;;;5065390;28;20441;-71
2021/08/17 00:04:17;;;;;;;5.60;1.60;;;;;;;;;;5060361;28;20441;-71
2021/08/17 00:06:45;;;;;;;10.47;2.70;;;;;;;;;;5059853;28;20469;-71
2021/08/17 00:09:12;;;;;;;8.90;2.10;;;;;;;;;;5063944;28;21046;-71
2021/08/17 00:11:40;;;;;;;4.40;1.90;;;;;;;;;;5062373;28;20457;-70
2021/08/17 00:14:08;;;;;;;7.97;2.33;;;;;;;;;;5063205;28;20511;-71
2021/08/17 00:16:36;;;;;;;6.30;1.80;;;;;;;;;;5063812;28;20511;-71
2021/08/17 00:19:08;;;;;;;7.80;1.70;;;;;;;;;;5069301;28;20804;-71
2021/08/17 00:21:37;;;;;;;7.57;1.97;;;;;;;;;;5065890;28;20449;-71
2021/08/17 00:24:06;;;;;;;9.00;1.60;;;;;;;;;;5062649;28;20611;-70
2021/08/17 00:26:33;;;;;;;6.97;1.90;;;;;;;;;;5071756;28;20460;-71
2021/08/17 00:29:01;;;;;;;7.77;2.37;;;;;;;;;;5069739;28;20930;-71
2021/08/17 00:31:29;;;;;;;4.60;1.80;;;;;;;;;;5069433;28;20940;-71
2021/08/17 00:34:00;;;;;;;4.83;1.73;;;;;;;;;;5070102;28;20454;-71
2021/08/17 00:36:32;;;;;;;6.30;1.70;;;;;;;;;;5071881;28;20985;-71
2021/08/17 00:39:01;;;;;;;6.13;1.23;;;;;;;;;;5075072;28;20732;-71
2021/08/17 00:41:29;;;;;;;7.67;2.13;;;;;;;;;;5075490;28;20456;-71
2021/08/17 00:43:57;;;;;;;3.97;1.20;;;;;;;;;;5073612;28;20760;-71
2021/08/17 00:46:25;;;;;;;8.80;2.40;;;;;;;;;;5074153;28;20868;-71
2021/08/17 00:48:53;;;;;;;5.63;2.07;;;;;;;;;;5074389;28;20864;-72
2021/08/17 00:51:21;;;;;;;7.20;1.97;;;;;;;;;;5074073;28;20541;-70
2021/08/17 00:53:51;;;;;;;4.80;1.83;;;;;;;;;;5072723;28;20471;-71
2021/08/17 00:56:18;;;;;;;6.60;1.47;;;;;;;;;;5073042;28;20454;-71
2021/08/17 00:58:46;;;;;;;3.73;1.07;;;;;;;;;;5074510;28;20614;-71
2021/08/17 01:01:15;;;;;;;1.97;1.23;;;;;;;;;;5074746;28;20767;-71
2021/08/17 01:03:42;;;;;;;5.37;1.50;;;;;;;;;;5074261;28;20484;-71
2021/08/17 01:06:10;;;;;;;2.57;1.10;;;;;;;;;;5074361;28;20456;-71
2021/08/17 01:08:38;;;;;;;6.53;1.27;;;;;;;;;;5074494;28;20543;-71
2021/08/17 01:11:07;;;;;;;6.37;1.50;;;;;;;;;;5074366;28;20876;-71
2021/08/17 01:13:35;;;;;;;5.27;1.60;;;;;;;;;;5073725;28;20487;-71
2021/08/17 01:16:03;;;;;;;3.97;1.30;;;;;;;;;;5074637;28;20974;-71
2021/08/17 01:18:30;;;;;;;2.80;1.37;;;;;;;;;;5072580;28;20463;-71
2021/08/17 01:20:59;;;;;;;3.27;1.07;;;;;;;;;;5057574;28;20542;-71
2021/08/17 01:23:31;;;;;;;4.30;1.00;;;;;;;;;;5058717;28;20481;-71
2021/08/17 01:26:00;;;;;;;3.33;1.30;;;;;;;;;;5059122;28;20853;-71
2021/08/17 01:28:28;;;;;;;7.47;1.67;;;;;;;;;;5058909;28;20572;-71
2021/08/17 01:31:00;;;;;;;4.07;1.57;;;;;;;;;;5058976;28;20861;-70
2021/08/17 01:33:28;;;;;;;4.27;1.50;;;;;;;;;;5058615;28;20445;-71
2021/08/17 01:35:55;;;;;;;3.70;1.40;;;;;;;;;;5057660;28;20869;-71
2021/08/17 01:38:23;;;;;;;2.43;1.10;;;;;;;;;;5058731;28;20838;-71
2021/08/17 01:40:51;;;;;;;3.70;1.27;;;;;;;;;;5058456;28;20468;-71
2021/08/17 01:43:24;;;;;;;2.23;0.90;;;;;;;;;;5058826;28;20927;-71
2021/08/17 01:45:59;;;;;;;2.13;0.93;;;;;;;;;;5058588;28;20893;-71
2021/08/17 01:48:27;;;;;;;2.77;1.10;;;;;;;;;;5058858;28;20547;-71
2021/08/17 01:50:55;;;;;;;1.37;0.80;;;;;;;;;;5058314;28;20543;-71
2021/08/17 01:53:24;;;;;;;2.70;0.97;;;;;;;;;;5058970;28;20461;-71
2021/08/17 01:55:54;;;;;;;2.70;1.00;;;;;;;;;;5058660;28;20457;-71
2021/08/17 01:58:24;;;;;;;4.67;1.27;;;;;;;;;;5057618;28;20456;-70
2021/08/17 02:00:52;;;;;;;4.00;1.63;;;;;;;;;;5058441;28;20577;-71
2021/08/17 02:03:20;;;;;;;2.27;1.10;;;;;;;;;;5058266;28;20485;-71
2021/08/17 02:05:48;;;;;;;2.07;0.90;;;;;;;;;;5058623;28;20468;-71
2021/08/17 02:08:15;;;;;;;5.97;1.10;;;;;;;;;;5059013;28;20461;-71
2021/08/17 02:10:43;;;;;;;4.40;1.67;;;;;;;;;;5058831;28;20484;-71
2021/08/17 02:13:11;;;;;;;3.97;1.10;;;;;;;;;;5058926;28;20556;-71
2021/08/17 02:15:41;;;;;;;3.60;0.87;;;;;;;;;;5058716;28;20492;-70
2021/08/17 02:18:09;;;;;;;5.97;1.00;;;;;;;;;;5058548;28;20462;-71
2021/08/17 02:20:37;;;;;;;7.70;1.20;;;;;;;;;;5059096;28;20454;-71
2021/08/17 02:23:05;;;;;;;3.70;1.10;;;;;;;;;;5057601;28;20924;-71
2021/08/17 02:25:32;;;;;;;7.67;0.90;;;;;;;;;;5057944;28;20458;-71
2021/08/17 02:28:00;;;;;;;2.60;0.80;;;;;;;;;;5058000;28;20511;-71
2021/08/17 02:30:34;;;;;;;2.53;1.00;;;;;;;;;;5058387;28;20554;-71
2021/08/17 02:33:03;;;;;;;1.97;0.70;;;;;;;;;;5057260;28;20492;-71
2021/08/17 02:35:31;;;;;;;2.23;0.90;;;;;;;;;;5057826;28;20714;-71
2021/08/17 02:37:59;;;;;;;2.47;0.90;;;;;;;;;;5057443;28;20454;-71
2021/08/17 02:40:26;;;;;;;4.00;1.10;;;;;;;;;;5057289;28;20468;-72
2021/08/17 02:42:54;;;;;;;6.30;1.40;;;;;;;;;;5057119;28;20484;-72
2021/08/17 02:45:22;;;;;;;3.23;0.90;;;;;;;;;;5057750;28;20526;-71
2021/08/17 02:47:50;;;;;;;1.90;1.10;;;;;;;;;;5057155;28;20970;-72
2021/08/17 02:50:19;;;;;;;4.17;1.40;;;;;;;;;;5057031;28;20469;-72
2021/08/17 02:52:47;;;;;;;3.43;1.03;;;;;;;;;;5057421;28;20479;-72
2021/08/17 02:55:15;;;;;;;6.70;1.10;;;;;;;;;;5056950;28;20495;-72
2021/08/17 02:57:49;;;;;;;4.53;1.40;;;;;;;;;;5057061;28;20446;-72
2021/08/17 03:00:17;;;;;;;6.57;1.70;;;;;;;;;;5057552;28;20469;-72
2021/08/17 03:02:45;;;;;;;4.40;1.50;;;;;;;;;;5056538;28;20464;-71
2021/08/17 03:05:13;;;;;;;4.53;1.20;;;;;;;;;;5057586;28;20461;-71
2021/08/17 03:07:50;;;;;;;5.13;1.70;;;;;;;;;;5057010;28;20648;-72
2021/08/17 03:10:18;;;;;;;4.40;2.50;;;;;;;;;;5056131;28;20457;-71
2021/08/17 03:12:46;;;;;;;5.30;2.00;;;;;;;;;;5056444;28;20928;-71
2021/08/17 03:15:14;;;;;;;4.63;1.50;;;;;;;;;;5056378;28;20538;-71
2021/08/17 03:17:42;;;;;;;3.67;1.60;;;;;;;;;;5056384;28;20461;-71
2021/08/17 03:20:11;;;;;;;5.63;2.30;;;;;;;;;;5056705;28;20454;-71
2021/08/17 03:22:39;;;;;;;8.93;2.13;;;;;;;;;;5057587;28;20468;-71
2021/08/17 03:25:10;;;;;;;9.10;2.03;;;;;;;;;;5056548;28;20485;-71
2021/08/17 03:27:38;;;;;;;7.17;1.90;;;;;;;;;;5056316;28;20457;-71
2021/08/17 03:30:09;;;;;;;6.23;1.77;;;;;;;;;;5056584;28;20472;-71
2021/08/17 03:32:37;;;;;;;7.20;2.43;;;;;;;;;;5056726;28;20523;-71
2021/08/17 03:35:05;;;;;;;6.97;2.30;;;;;;;;;;5056315;28;20559;-71
2021/08/17 03:37:33;;;;;;;11.13;2.43;;;;;;;;;;5056077;28;20863;-71
2021/08/17 03:40:00;;;;;;;5.67;1.73;;;;;;;;;;5056686;28;20465;-71
2021/08/17 03:42:30;;;;;;;7.43;2.70;;;;;;;;;;5056335;28;20888;-71
2021/08/17 03:44:58;;;;;;;7.57;1.60;;;;;;;;;;5056135;28;20511;-71
2021/08/17 03:47:26;;;;;;;7.33;1.93;;;;;;;;;;5055516;28;20457;-70
2021/08/17 03:49:54;;;;;;;6.20;1.80;;;;;;;;;;5056594;28;20488;-71
2021/08/17 03:52:22;;;;;;;5.33;1.93;;;;;;;;;;5056265;28;20464;-71
2021/08/17 03:54:49;;;;;;;3.07;1.40;;;;;;;;;;5056312;28;20571;-71
2021/08/17 03:57:17;;;;;;;4.07;2.17;;;;;;;;;;5055521;28;20464;-70
2021/08/17 03:59:49;;;;;;;11.70;3.93;;;;;;;;;;5056451;28;20465;-70
2021/08/17 04:02:17;;;;;;;7.87;2.00;;;;;;;;;;5055140;28;20466;-71
2021/08/17 04:04:45;;;;;;;4.20;1.70;;;;;;;;;;5055330;28;20500;-71
2021/08/17 04:07:13;;;;;;;4.90;1.93;;;;;;;;;;5055339;28;20459;-71
2021/08/17 04:09:41;;;;;;;4.97;2.27;;;;;;;;;;5054738;28;20525;-71
2021/08/17 04:12:09;;;;;;;6.00;2.73;;;;;;;;;;5057666;28;20461;-74
2021/08/17 04:14:39;;;;;;;9.20;1.70;;;;;;;;;;5060531;28;20464;-71
2021/08/17 04:17:08;;;;;;;7.70;1.90;;;;;;;;;;5060328;28;20459;-71
2021/08/17 04:19:39;;;;;;;6.03;1.83;;;;;;;;;;5059852;28;20501;-70
2021/08/17 04:22:07;;;;;;;5.17;2.10;;;;;;;;;;5059724;28;20457;-71
2021/08/17 04:24:35;;;;;;;5.73;1.63;;;;;;;;;;5059832;28;20920;-70
2021/08/17 04:27:03;;;;;;;7.03;1.60;;;;;;;;;;5058865;28;20454;-70
2021/08/17 04:29:31;;;;;;;8.50;1.93;;;;;;;;;;5059913;28;20853;-70
2021/08/17 04:31:58;;;;;;;4.63;1.83;;;;;;;;;;5059334;28;20552;-71
2021/08/17 04:34:28;;;;;;;8.07;2.10;;;;;;;;;;5058450;28;20808;-70
2021/08/17 04:36:58;;;;;;;6.63;2.00;;;;;;;;;;5059839;28;20467;-70
2021/08/17 04:39:26;;;;;;;6.60;1.40;;;;;;;;;;5059233;28;20795;-70
2021/08/17 04:41:54;;;;;;;7.23;2.53;;;;;;;;;;5059848;28;20804;-70
2021/08/17 04:44:22;;;;;;;3.37;1.13;;;;;;;;;;5059828;28;20519;-71
2021/08/17 04:46:49;;;;;;;6.57;1.80;;;;;;;;;;5059362;28;20458;-71
2021/08/17 04:49:17;;;;;;;4.23;1.50;;;;;;;;;;5059528;28;20787;-71
2021/08/17 04:51:46;;;;;;;4.10;1.47;;;;;;;;;;5059104;28;20485;-71
2021/08/17 04:54:14;;;;;;;5.67;1.60;;;;;;;;;;5059100;28;20491;-71
2021/08/17 04:56:45;;;;;;;4.10;1.60;;;;;;;;;;5059182;28;20519;-71
2021/08/17 04:59:13;;;;;;;2.77;1.60;;;;;;;;;;5058250;28;20757;-71
2021/08/17 05:01:43;;;;;;;4.53;1.33;;;;;;;;;;5057274;28;20450;-71
2021/08/17 05:04:11;;;;;;;4.87;1.77;;;;;;;;;;5059396;28;20583;-70
2021/08/17 05:06:39;;;;;;;2.63;1.30;;;;;;;;;;5059380;28;20715;-70
2021/08/17 05:09:09;;;;;;;2.10;1.23;;;;;;;;;;5058023;28;20492;-70
2021/08/17 05:11:37;;;;;;;3.10;1.20;;;;;;;;;;5059181;28;20539;-71
2021/08/17 05:14:06;;;;;;;2.67;1.30;;;;;;;;;;5059251;28;20831;-71
2021/08/17 05:16:34;;;;;;;1.70;1.37;;;;;;;;;;5059140;28;20496;-71
2021/08/17 05:19:02;;;;;;;3.70;1.73;;;;;;;;;;5059271;28;20465;-71
2021/08/17 05:21:30;;;;;;;2.20;1.47;;;;;;;;;;5058490;28;20504;-71
2021/08/17 05:23:58;;;;;;;4.77;2.80;;;;;;;;;;5058081;28;20516;-71
2021/08/17 05:26:30;;;;;;;2.30;1.50;;;;;;;;;;5058098;28;20560;-71
2021/08/17 05:28:57;;;;;;;5.07;2.23;;;;;;;;;;5057391;28;21212;-71
2021/08/17 05:31:25;;;;;;;3.70;2.07;;;;;;;;;;5057364;28;20473;-71
2021/08/17 05:33:53;;;;;;;3.30;1.50;;;;;;;;;;5056996;28;20530;-70
2021/08/17 05:36:21;;;;;;;3.73;1.73;;;;;;;;;;5057959;28;20461;-70
2021/08/17 05:38:49;;;;;;;3.20;1.60;;;;;;;;;;5057785;28;21084;-71
2021/08/17 05:41:16;;;;;;;4.23;2.13;;;;;;;;;;5057187;28;20461;-71
2021/08/17 05:43:46;;;;;;;5.77;2.00;;;;;;;;;;5056328;28;21032;-71
2021/08/17 05:46:14;;;;;;;3.47;1.20;;;;;;;;;;5057363;28;20523;-72
2021/08/17 05:48:42;;;;;;;3.70;1.33;;;;;;;;;;5057096;28;20468;-71
2021/08/17 05:51:11;;;;;;;4.70;1.50;;;;;;;;;;5058364;28;20968;-71
2021/08/17 05:53:40;;;;;;;7.83;1.80;;;;;;;;;;5058427;28;20728;-71
2021/08/17 05:56:08;;;;;;;3.13;1.40;;;;;;;;;;5048437;28;20457;-71
2021/08/17 05:58:35;;;;;;;2.70;1.90;;;;;;;;;;5056005;28;20845;-71
2021/08/17 06:01:08;;;;;;;7.00;2.43;;;;;;;;;;5057210;28;20465;-71
2021/08/17 06:03:36;;;;;;;4.90;2.10;;;;;;;;;;5056841;28;20456;-70
2021/08/17 06:06:04;;;;;;;3.83;2.10;;;;;;;;;;5056718;28;20500;-70
2021/08/17 06:08:32;;;;;;;5.23;1.90;;;;;;;;;;5057304;28;20955;-70
2021/08/17 06:11:00;;;;;;;7.73;2.20;;;;;;;;;;5056692;28;20551;-71
2021/08/17 06:13:28;;;;;;;5.43;2.30;;;;;;;;;;5057201;28;20461;-71
2021/08/17 06:15:57;;;;;;;4.37;1.80;;;;;;;;;;5037958;28;20469;-71
2021/08/17 06:18:26;;;;;;;5.20;2.90;;;;;;;;;;5053084;28;20952;-71
2021/08/17 06:20:54;;;;;;;5.50;2.23;;;;;;;;;;5057719;28;20461;-71
2021/08/17 06:23:22;;;;;;;3.70;1.67;;;;;;;;;;5057463;28;20484;-71
2021/08/17 06:25:49;;;;;;;4.13;1.80;;;;;;;;;;5056186;28;20485;-72
2021/08/17 06:28:17;;;;;;;5.97;2.90;;;;;;;;;;5056902;28;20504;-71
2021/08/17 06:30:45;;;;;;;4.33;2.17;;;;;;;;;;5057137;28;20461;-71
2021/08/17 06:33:13;;;;;;;4.43;1.70;;;;;;;;;;5056370;28;20541;-72
2021/08/17 06:35:45;;;;;;;4.27;2.10;;;;;;;;;;5055419;28;20881;-71
2021/08/17 06:38:14;;;;;;;6.47;2.13;;;;;;;;;;5057068;28;20523;-72
2021/08/17 06:40:42;;;;;;;7.17;1.60;;;;;;;;;;5056570;28;20538;-71
2021/08/17 06:43:10;;;;;;;4.53;1.43;;;;;;;;;;5054529;28;20481;-73
2021/08/17 06:45:38;;;;;;;4.30;1.97;;;;;;;;;;5039024;28;20552;-71
2021/08/17 06:48:06;;;;;;;3.63;1.20;;;;;;;;;;5058562;28;20460;-71
2021/08/17 06:50:38;;;;;;;4.20;1.30;;;;;;;;;;5075297;28;20503;-71
2021/08/17 06:53:07;;;;;;;5.03;2.00;;;;;;;;;;5068566;28;20453;-71
2021/08/17 06:55:36;;;;;;;11.37;2.60;;;;;;;;;;5071721;28;20750;-71
2021/08/17 06:58:05;;;;;;;4.13;2.00;;;;;;;;;;5070774;28;20461;-71
2021/08/17 07:00:33;;;;;;;3.30;2.07;;;;;;;;;;5072030;28;20449;-71
2021/08/17 07:03:06;;;;;;;3.97;1.73;;;;;;;;;;5069776;28;20445;-72
2021/08/17 07:05:36;;;;;;;6.60;2.30;;;;;;;;;;5037290;28;20540;-71
2021/08/17 07:08:08;;;;;;;8.83;2.33;;;;;;;;;;5070213;28;20468;-71
2021/08/17 07:10:40;;;;;;;4.97;2.50;;;;;;;;;;5070910;28;20460;-71
2021/08/17 07:13:10;;;;;;;3.93;2.00;;;;;;;;;;5054645;28;20522;-71
2021/08/17 07:15:40;;;;;;;8.30;2.63;;;;;;;;;;5048705;28;20545;-71
2021/08/17 07:18:08;;;;;;;12.17;3.20;;;;;;;;;;5071273;28;20460;-71
2021/08/17 07:20:37;;;;;;;4.43;2.50;;;;;;;;;;5071409;28;20790;-71
2021/08/17 07:23:05;;;;;;;3.70;2.20;;;;;;;;;;5046940;28;20591;-71
2021/08/17 07:25:35;;;;;;;5.70;2.67;;;;;;;;;;5068519;28;21058;-71
2021/08/17 07:28:07;;;;;;;6.93;3.23;;;;;;;;;;5039461;28;20458;-71
2021/08/17 07:30:36;;;;;;;7.33;3.07;;;;;;;;;;5072727;28;20460;-71
2021/08/17 07:33:04;;;;;;;8.97;2.87;;;;;;;;;;5073744;28;21045;-71
2021/08/17 07:35:31;;;;;;;6.03;2.70;;;;;;;;;;5073432;28;20555;-72
2021/08/17 07:38:01;;;;;;;3.77;2.00;;;;;;;;;;5073588;28;20475;-71
2021/08/17 07:40:29;;;;;;;3.20;1.77;;;;;;;;;;5072367;28;20559;-71
2021/08/17 07:42:58;;;;;;;4.23;2.23;;;;;;;;;;5072763;28;20445;-72
2021/08/17 07:45:26;;;;;;;6.93;2.70;;;;;;;;;;5071233;28;20749;-72
2021/08/17 07:47:54;;;;;;;9.63;3.33;;;;;;;;;;5072291;28;20882;-71
2021/08/17 07:50:26;;;;;;;5.73;3.07;;;;;;;;;;5073102;28;20483;-71
2021/08/17 07:52:57;;;;;;;5.53;2.57;;;;;;;;;;5070609;28;20485;-71
2021/08/17 07:55:24;;;;;;;8.67;3.57;;;;;;;;;;5071695;28;20484;-71
2021/08/17 07:57:52;;;;;;;3.93;2.60;;;;;;;;;;5071348;28;20475;-72
2021/08/17 08:00:26;;;;;;;8.37;3.00;;;;;;;;;;5071384;28;20545;-71
2021/08/17 08:02:54;;;;;;;11.17;3.83;;;;;;;;;;5070768;28;20444;-71
2021/08/17 08:05:22;;;;;;;4.10;2.40;;;;;;;;;;5070645;28;20520;-71
2021/08/17 08:07:50;;;;;;;5.13;2.90;;;;;;;;;;5070481;28;20471;-70
2021/08/17 08:10:18;;;;;;;3.47;2.80;;;;;;;;;;5071121;28;20534;-71
2021/08/17 08:12:45;;;;;;;5.40;3.13;;;;;;;;;;5067172;28;20864;-72
2021/08/17 08:15:13;;;;;;;4.80;2.90;;;;;;;;;;5069290;28;20569;-71
2021/08/17 08:17:43;;;;;;;7.83;4.03;;;;;;;;;;5072119;28;20517;-72
2021/08/17 08:20:12;;;;;;;8.07;3.17;;;;;;;;;;5070579;28;20795;-72
2021/08/17 08:22:50;;;;;;;7.73;3.07;;;;;;;;;;5071535;28;20457;-72
2021/08/17 08:25:24;;;;;;;11.60;2.73;;;;;;;;;;5070541;28;20488;-74
2021/08/17 08:27:52;;;;;;;7.83;2.47;;;;;;;;;;5069263;28;20465;-71
2021/08/17 08:30:23;;;;;;;7.10;2.70;;;;;;;;;;5072998;28;20476;-71
2021/08/17 08:32:52;;;;;;;6.53;2.63;;;;;;;;;;5071677;28;20490;-71
2021/08/17 08:35:29;;;;;;;6.37;3.40;;;;;;;;;;5071347;28;20437;-71
2021/08/17 08:41:00;;;;;;;14.50;2.50;;;;;;;;;;5070435;28;20447;-71
2021/08/17 08:43:31;;;;;;;6.37;2.50;;;;;;;;;;5071702;28;20928;-71
2021/08/17 08:45:59;;;;;;;6.63;2.30;;;;;;;;;;5070315;28;21172;-71
2021/08/17 08:48:29;;;;;;;12.37;3.17;;;;;;;;;;5069303;28;20453;-71
2021/08/17 08:50:57;;;;;;;8.03;2.50;;;;;;;;;;5070569;28;21023;-71
2021/08/17 08:53:26;;;;;;;8.53;2.63;;;;;;;;;;5075165;28;20441;-70
2021/08/17 08:55:54;;;;;;;11.97;3.07;;;;;;;;;;5072461;28;20862;-70
2021/08/17 08:58:27;;;;;;;12.93;4.20;;;;;;;;;;5074939;28;20482;-70
2021/08/17 09:00:55;;;;;;;10.90;3.33;;;;;;;;;;5073203;28;20468;-71
2021/08/17 09:03:37;;;;;;;10.30;2.47;;;;;;;;;;5076299;28;20516;-71
2021/08/17 09:09:11;;;;;;;10.60;2.87;;;;;;;;;;5070623;28;20452;-71
2021/08/17 09:11:40;;;;;;;4.63;1.80;;;;;;;;;;5043489;28;20589;-72
2021/08/17 09:14:19;;;;;;;6.07;2.40;;;;;;;;;;5073706;28;20448;-71
2021/08/17 09:16:47;;;;;;;4.80;1.70;;;;;;;;;;5073240;28;20453;-72
2021/08/17 09:19:32;;;;;;;9.07;2.30;;;;;;;;;;5074160;28;20464;-72
2021/08/17 09:22:02;;;;;;;3.53;1.83;;;;;;;;;;5073358;28;20464;-72
2021/08/17 09:24:43;;;;;;;9.13;2.10;;;;;;;;;;5073417;28;20445;-73
2021/08/17 09:27:14;;;;;;;6.20;1.60;;;;;;;;;;5056045;28;20492;-70
2021/08/17 09:29:43;;;;;;;6.73;2.27;;;;;;;;;;5075136;28;20492;-71
2021/08/17 09:32:19;;;;;;;5.27;2.20;;;;;;;;;;5075216;28;20641;-72
2021/08/17 09:35:01;;;;;;;;;;;;;;;;;;;;;
2021/08/17 09:37:43;;;;;;;7.77;2.27;;;;;;;;;;5066085;28;20552;-71
2021/08/17 09:40:16;;;;;;;4.37;1.83;;;;;;;;;;5074486;28;20471;-72
2021/08/17 09:42:44;;;;;;;8.00;2.00;;;;;;;;;;5074350;28;20732;-72
2021/08/17 09:45:15;;;;;;;8.23;2.67;;;;;;;;;;5072309;28;20497;-72
2021/08/17 09:47:45;;;;;;;8.10;1.97;;;;;;;;;;5074028;28;20449;-71
2021/08/17 09:50:21;;;;;;;6.13;2.20;;;;;;;;;;5072877;28;20464;-71
2021/08/17 09:53:08;;;;;;;10.43;2.30;;;;;;;;;;5072299;28;20463;-72
2021/08/17 09:55:44;;;;;;;8.27;2.33;;;;;;;;;;5076063;28;20551;-71
2021/08/17 09:58:19;;;;;;;5.57;2.43;;;;;;;;;;5075046;28;20460;-71
2021/08/17 10:00:47;;;;;;;15.27;2.87;;;;;;;;;;5051185;28;20899;-71
2021/08/17 10:03:16;;;;;;;6.97;3.10;;;;;;;;;;5065012;28;20461;-72
2021/08/17 10:05:45;;;;;;;4.87;2.13;;;;;;;;;;5073954;28;20531;-72
2021/08/17 10:08:16;;;;;;;7.10;2.80;;;;;;;;;;5073429;28;20961;-71
2021/08/17 10:10:48;;;;;;;10.73;2.40;;;;;;;;;;5074193;28;20457;-72
2021/08/17 10:13:17;;;;;;;7.97;3.10;;;;;;;;;;5073306;28;20448;-71
2021/08/17 10:15:51;;;;;;;14.63;2.47;;;;;;;;;;5071726;28;20473;-73
2021/08/17 10:18:25;;;;;;;11.87;2.10;;;;;;;;;;5071437;28;20463;-72
2021/08/17 10:20:55;;;;;;;12.90;2.70;;;;;;;;;;5071494;28;20460;-72
2021/08/17 10:23:26;;;;;;;9.57;1.87;;;;;;;;;;5070060;28;20452;-71
2021/08/17 10:25:55;;;;;;;3.30;1.83;;;;;;;;;;5071246;28;20521;-72
2021/08/17 10:28:41;;;;;;;6.10;2.50;;;;;;;;;;5071738;28;20537;-71
2021/08/17 10:31:30;;;;;;;4.90;1.63;;;;;;;;;;5065160;28;20525;-71
2021/08/17 10:34:11;;;;;;;7.30;2.33;;;;;;;;;;5072536;28;20469;-72
2021/08/17 10:36:42;;;;;;;8.10;1.43;;;;;;;;;;5070564;28;20471;-71
2021/08/17 10:39:28;;;;;;;5.00;2.50;;;;;;;;;;5072035;28;20486;-71
2021/08/17 10:41:58;;;;;;;3.70;1.53;;;;;;;;;;5041085;28;20493;-71
2021/08/17 10:44:26;;;;;;;7.03;2.20;;;;;;;;;;5052040;28;20549;-72
2021/08/17 10:46:55;;;;;;;4.70;1.67;;;;;;;;;;5052389;28;20804;-72
2021/08/17 10:49:30;;;;;;;6.27;2.40;;;;;;;;;;5050129;28;20468;-71
2021/08/17 10:52:01;;;;;;;8.80;2.37;;;;;;;;;;5065434;28;20459;-72
2021/08/17 10:54:31;;;;;;;10.47;1.60;;;;;;;;;;5056132;28;20473;-72
2021/08/17 10:57:15;;;;;;;4.30;1.50;;;;;;;;;;5057013;28;20552;-72
2021/08/17 10:59:44;;;;;;;11.63;1.93;;;;;;;;;;5054568;28;20472;-72
2021/08/17 11:02:14;;;;;;;7.17;2.47;;;;;;;;;;5069999;28;20793;-72
2021/08/17 11:04:43;;;;;;;6.87;1.93;;;;;;;;;;5069968;28;20463;-72
2021/08/17 11:07:24;;;;;;;7.80;1.93;;;;;;;;;;5070082;28;20503;-71
2021/08/17 11:09:52;;;;;;;8.10;1.30;;;;;;;;;;5071019;28;20459;-71
2021/08/17 11:12:22;;;;;;;10.30;2.27;;;;;;;;;;5069807;28;20563;-71
2021/08/17 11:14:53;;;;;;;6.70;1.93;;;;;;;;;;5068483;28;20522;-72
2021/08/17 11:17:21;;;;;;;9.93;2.30;;;;;;;;;;5069773;28;20464;-72
2021/08/17 11:19:49;;;;;;;4.20;1.50;;;;;;;;;;5056484;28;20465;-71
2021/08/17 11:22:18;;;;;;;5.70;2.43;;;;;;;;;;5070292;28;20799;-71
2021/08/17 11:24:49;;;;;;;5.03;1.60;;;;;;;;;;5070822;28;20464;-71
2021/08/17 11:27:17;;;;;;;4.63;1.63;;;;;;;;;;5070808;28;20524;-71
2021/08/17 11:29:48;;;;;;;4.90;1.80;;;;;;;;;;5071784;28;20464;-71
2021/08/17 11:32:33;;;;;;;4.17;1.97;;;;;;;;;;5069105;28;20452;-71
2021/08/17 11:35:04;;;;;;;5.30;2.07;;;;;;;;;;5059003;28;20453;-72
2021/08/17 11:37:33;;;;;;;6.10;2.17;;;;;;;;;;5069894;28;20895;-71
2021/08/17 11:40:10;;;;;;;11.63;4.80;;;;;;;;;;5072648;28;20469;-71
2021/08/17 11:42:44;;;;;;;7.50;2.80;;;;;;;;;;5072828;28;20440;-71
2021/08/17 11:45:24;;;;;;;5.90;1.67;;;;;;;;;;5072980;28;20704;-71
2021/08/17 11:47:53;;;;;;;4.93;1.97;;;;;;;;;;5068950;28;20491;-70
2021/08/17 11:50:22;;;;;;;4.33;2.20;;;;;;;;;;5072891;28;20448;-72
2021/08/17 11:52:50;;;;;;;5.77;1.90;;;;;;;;;;5070078;28;20534;-71
2021/08/17 11:55:19;;;;;;;5.37;1.77;;;;;;;;;;5065145;28;20452;-70
2021/08/17 11:57:48;;;;;;;6.07;2.07;;;;;;;;;;5059038;28;20465;-71
2021/08/17 12:00:28;;;;;;;7.23;2.43;;;;;;;;;;5074573;28;20506;-71
2021/08/17 12:02:57;;;;;;;7.70;1.60;;;;;;;;;;5070050;28;20499;-71
2021/08/17 12:05:38;;;;;;;3.90;1.73;;;;;;;;;;5072083;28;20524;-70
2021/08/17 12:08:10;;;;;;;6.53;1.83;;;;;;;;;;5074702;28;20456;-71
2021/08/17 12:10:43;;;;;;;7.47;1.70;;;;;;;;;;5053908;28;20453;-72
2021/08/17 12:13:15;;;;;;;11.33;2.10;;;;;;;;;;5069355;28;20527;-72
2021/08/17 12:15:47;;;;;;;6.90;1.97;;;;;;;;;;5070484;28;20466;-72
2021/08/17 12:18:26;;;;;;;4.30;1.50;;;;;;;;;;5073286;28;20444;-71
2021/08/17 12:20:59;;;;;;;4.37;1.40;;;;;;;;;;5071749;28;20468;-71
2021/08/17 12:23:29;;;;;;;8.73;2.00;;;;;;;;;;5069719;28;20732;-72
2021/08/17 12:25:59;;;;;;;9.93;2.40;;;;;;;;;;5061349;28;20449;-71
2021/08/17 12:28:36;;;;;;;4.13;2.40;;;;;;;;;;5065548;28;20448;-72
2021/08/17 12:31:19;;;;;;;11.20;2.87;;;;;;;;;;5068479;28;20467;-71
2021/08/17 12:33:53;;;;;;;5.07;2.40;;;;;;;;;;5070885;28;20492;-71
2021/08/17 12:36:26;;;;;;;5.00;1.80;;;;;;;;;;5050555;28;21178;-71
2021/08/17 12:38:58;;;;;;;3.77;1.50;;;;;;;;;;5077458;28;20543;-72
2021/08/17 12:41:34;;;;;;;6.17;2.73;;;;;;;;;;5078668;28;20468;-72
2021/08/17 12:44:03;;;;;;;6.30;2.67;;;;;;;;;;5068102;28;20552;-71
2021/08/17 12:46:42;;;;;;;4.17;1.80;;;;;;;;;;5072602;28;20484;-71
2021/08/17 12:49:14;;;;;;;8.93;2.30;;;;;;;;;;5075443;28;20587;-71
2021/08/17 12:51:49;;;;;;;7.43;2.63;;;;;;;;;;5063537;28;20445;-71
2021/08/17 12:54:23;;;;;;;5.33;2.53;;;;;;;;;;5064212;28;20442;-71
2021/08/17 12:56:51;;;;;;;4.93;2.20;;;;;;;;;;5071957;28;20855;-71
2021/08/17 12:59:20;;;;;;;5.00;2.40;;;;;;;;;;5073351;28;20452;-71
2021/08/17 13:01:55;;;;;;;8.17;4.87;;;;;;;;;;5072048;28;20452;-70
2021/08/17 13:04:29;;;;;;;6.70;2.50;;;;;;;;;;5072305;28;20471;-71
2021/08/17 13:06:59;;;;;;;6.57;2.70;;;;;;;;;;5072260;28;20899;-73
2021/08/17 13:09:29;;;;;;;8.50;3.40;;;;;;;;;;5072061;28;20471;-74
2021/08/17 13:11:57;;;;;;;6.93;3.60;;;;;;;;;;5068104;28;20448;-71
2021/08/17 13:14:26;;;;;;;7.03;3.40;;;;;;;;;;5071421;28;20452;-72
2021/08/17 13:17:11;;;;;;;12.20;4.20;;;;;;;;;;5076091;28;20460;-72
2021/08/17 13:19:51;;;;;;;8.43;3.67;;;;;;;;;;5066415;28;20482;-72
2021/08/17 13:22:20;;;;;;;8.50;3.53;;;;;;;;;;5071571;28;20464;-71
2021/08/17 13:24:49;;;;;;;7.53;3.60;;;;;;;;;;5073236;28;20530;-71
2021/08/17 13:27:33;;;;;;;8.20;3.77;;;;;;;;;;5063492;28;20571;-72
2021/08/17 13:30:12;;;;;;;8.40;4.33;;;;;;;;;;5069361;28;20551;-70
2021/08/17 13:32:45;;;;;;;5.83;3.63;;;;;;;;;;5044994;28;20779;-73
2021/08/17 13:35:18;;;;;;;6.10;4.07;;;;;;;;;;5074691;28;20562;-74
2021/08/17 13:37:49;;;;;;;5.47;3.63;;;;;;;;;;5072180;28;20485;-73
2021/08/17 13:40:17;;;;;;;9.27;5.37;;;;;;;;;;5073636;28;20547;-73
2021/08/17 13:42:47;;;;;;;6.33;2.73;;;;;;;;;;5071946;28;20549;-73
2021/08/17 13:45:16;;;;;;;6.60;3.30;;;;;;;;;;5075171;28;20914;-73
2021/08/17 13:47:45;;;;;;;9.50;3.93;;;;;;;;;;5075229;28;20488;-73
2021/08/17 13:50:18;;;;;;;8.07;3.43;;;;;;;;;;5071819;28;20879;-72
2021/08/17 13:55:45;;;;;;;7.67;4.10;;;;;;;;;;5046005;28;20801;-72
2021/08/17 13:58:18;;;;;;;9.50;4.10;;;;;;;;;;5073743;28;20903;-72
2021/08/17 14:00:54;;;;;;;9.10;3.70;;;;;;;;;;5072571;28;20448;-71
2021/08/17 14:03:27;;;;;;;10.33;3.63;;;;;;;;;;5070337;28;20448;-71
2021/08/17 14:08:50;;;;;;;6.13;3.70;;;;;;;;;;5071751;28;20467;-72
2021/08/17 14:11:22;;;;;;;10.83;3.37;;;;;;;;;;5064354;28;20467;-71
2021/08/17 14:17:08;;;;;;;10.83;4.50;;;;;;;;;;5049452;28;20481;-72
2021/08/17 14:19:45;;;;;;;9.60;4.13;;;;;;;;;;5050392;28;20476;-71
2021/08/17 14:22:18;;;;;;;11.10;6.30;;;;;;;;;;5018942;28;21010;-72
2021/08/17 14:24:52;;;;;;;9.10;4.20;;;;;;;;;;5071160;28;20457;-72
2021/08/17 14:27:22;;;;;;;8.47;4.37;;;;;;;;;;5072672;28;20531;-72
2021/08/17 14:32:32;;;;;;;11.60;4.47;;;;;;;;;;5066472;28;20499;-71
2021/08/17 14:35:05;;;;;;;7.40;4.30;;;;;;;;;;5069022;28;20528;-72
2021/08/17 14:38:06;;;;;;;10.30;4.10;;;;;;;;;;5070594;28;20468;-73
2021/08/17 14:40:37;;;;;;;6.70;3.57;;;;;;;;;;5054637;28;21108;-73
2021/08/17 14:43:05;;;;;;;7.67;3.80;;;;;;;;;;5071878;28;20468;-72
2021/08/17 14:45:33;;;;;;;8.50;4.17;;;;;;;;;;5069098;28;20791;-71
2021/08/17 14:48:02;;;;;;;6.70;3.17;;;;;;;;;;5070107;28;20495;-72
2021/08/17 14:50:31;;;;;;;6.77;3.80;;;;;;;;;;5068535;28;20453;-71
2021/08/17 14:53:00;;;;;;;7.60;3.60;;;;;;;;;;5069645;28;21837;-72
2021/08/17 14:55:28;;;;;;;10.37;4.37;;;;;;;;;;5066506;28;20532;-71
2021/08/17 14:57:56;;;;;;;9.00;4.47;;;;;;;;;;5066808;28;20535;-72
2021/08/17 15:00:25;;;;;;;8.50;4.30;;;;;;;;;;5053397;28;20541;-72
2021/08/17 15:02:53;;;;;;;11.17;4.67;;;;;;;;;;5070163;28;20453;-72
2021/08/17 15:05:22;;;;;;;7.43;3.70;;;;;;;;;;5068759;28;20449;-73
2021/08/17 15:08:11;;;;;;;8.70;4.83;;;;;;;;;;5069201;28;20485;-73
2021/08/17 15:11:03;;;;;;;8.50;4.47;;;;;;;;;;5067808;28;20455;-71
2021/08/17 15:13:56;;;;;;;7.50;3.60;;;;;;;;;;5066239;28;20456;-72
2021/08/17 15:16:30;;;;;;;6.80;3.90;;;;;;;;;;5038662;28;20449;-72
2021/08/17 15:19:04;;;;;;;6.03;3.73;;;;;;;;;;5070470;28;20521;-72
2021/08/17 15:21:35;;;;;;;14.00;5.47;;;;;;;;;;5069775;28;20454;-72